createdAt,value
2019-05-15T00:02:12.672Z,4.45
2019-05-15T00:04:39.968Z,4.39
2019-05-15T00:07:08.932Z,4.32
2019-05-15T00:09:39.604Z,4.26
2019-05-15T00:12:04.911Z,4.22
2019-05-15T00:14:32.178Z,4.17
2019-05-15T00:16:59.225Z,4.16
2019-05-15T00:19:28.451Z,4.18
2019-05-15T00:21:55.295Z,4.16
2019-05-15T00:24:22.614Z,4.14
2019-05-15T00:29:31.239Z,4.05
2019-05-15T00:31:58.988Z,4.01
2019-05-15T00:34:28.439Z,3.98
2019-05-15T00:36:58.279Z,3.93
2019-05-15T00:39:25.095Z,3.92
2019-05-15T00:41:54.750Z,3.90
2019-05-15T00:44:20.934Z,3.90
2019-05-15T00:46:48.817Z,3.88
2019-05-15T00:49:16.162Z,3.86
2019-05-15T00:51:43.457Z,3.81
2019-05-15T00:54:10.742Z,3.77
2019-05-15T00:56:39.111Z,3.73
2019-05-15T00:59:08.392Z,3.71
2019-05-15T01:01:35.186Z,3.71
2019-05-15T01:04:02.465Z,3.66
2019-05-15T01:06:29.776Z,3.60
2019-05-15T01:08:58.799Z,3.57
2019-05-15T01:11:25.794Z,3.54
2019-05-15T01:13:52.834Z,3.51
2019-05-15T01:16:19.860Z,3.45
2019-05-15T01:18:49.187Z,3.39
2019-05-15T01:21:15.960Z,3.38
2019-05-15T01:23:43.243Z,3.35
2019-05-15T01:26:10.271Z,3.30
2019-05-15T01:28:38.350Z,3.28
2019-05-15T01:31:05.605Z,3.29
2019-05-15T01:33:32.913Z,3.25
2019-05-15T01:36:00.201Z,3.19
2019-05-15T01:38:28.082Z,3.17
2019-05-15T01:40:55.349Z,3.16
2019-05-15T01:43:22.659Z,3.13
2019-05-15T01:45:49.690Z,3.12
2019-05-15T01:48:18.851Z,3.11
2019-05-15T01:50:45.729Z,3.14
2019-05-15T01:53:12.777Z,3.12
2019-05-15T01:55:39.872Z,3.11
2019-05-15T01:58:09.102Z,3.05
2019-05-15T02:00:35.927Z,3.04
2019-05-15T02:03:02.984Z,3.02
2019-05-15T02:05:30.007Z,3.05
2019-05-15T02:07:58.598Z,3.03
2019-05-15T02:10:25.733Z,3.02
2019-05-15T02:12:53.036Z,3.02
2019-05-15T02:15:20.310Z,3.02
2019-05-15T02:17:48.137Z,2.99
2019-05-15T02:20:15.225Z,2.98
2019-05-15T02:22:42.762Z,2.96
2019-05-15T02:25:10.241Z,2.92
2019-05-15T02:27:39.355Z,2.88
2019-05-15T02:30:17.956Z,2.86
2019-05-15T02:32:39.520Z,2.85
2019-05-15T02:35:05.360Z,2.84
2019-05-15T02:37:32.370Z,2.82
2019-05-15T02:39:59.662Z,2.79
2019-05-15T02:42:28.982Z,2.77
2019-05-15T02:44:58.499Z,2.77
2019-05-15T02:47:24.404Z,2.76
2019-05-15T02:49:51.598Z,2.74
2019-05-15T02:52:19.922Z,2.73
2019-05-15T02:54:49.795Z,2.73
2019-05-15T02:57:19.070Z,2.74
2019-05-15T02:59:44.874Z,2.73
2019-05-15T03:02:11.891Z,2.73
2019-05-15T03:04:40.041Z,2.72
2019-05-15T03:07:09.611Z,2.72
2019-05-15T03:09:39.874Z,2.69
2019-05-15T03:12:08.913Z,2.65
2019-05-15T03:14:35.001Z,2.63
2019-05-15T03:17:02.288Z,2.61
2019-05-15T03:19:30.077Z,2.57
2019-05-15T03:21:59.850Z,2.55
2019-05-15T03:24:28.912Z,2.58
2019-05-15T03:26:54.996Z,2.59
2019-05-15T03:29:22.100Z,2.56
2019-05-15T03:32:06.092Z,2.56
2019-05-15T03:34:27.474Z,2.58
2019-05-15T03:36:52.908Z,2.58
2019-05-15T03:39:18.966Z,2.61
2019-05-15T03:41:46.176Z,2.64
2019-05-15T03:44:13.462Z,2.66
2019-05-15T03:46:40.744Z,2.69
2019-05-15T03:49:08.675Z,2.78
2019-05-15T03:51:39.913Z,3.06
2019-05-15T03:54:04.821Z,3.60
2019-05-15T03:56:31.857Z,3.98
2019-05-15T04:02:01.997Z,5.06
2019-05-15T04:04:31.641Z,6.22
2019-05-15T04:06:59.732Z,6.99
2019-05-15T04:09:29.429Z,7.86
2019-05-15T04:11:59.801Z,8.79
2019-05-15T04:14:25.652Z,9.78
2019-05-15T04:16:52.936Z,10.41
2019-05-15T04:19:20.256Z,11.16
2019-05-15T04:21:49.451Z,11.79
2019-05-15T04:24:19.037Z,12.73
2019-05-15T04:26:48.461Z,13.71
2019-05-15T04:29:14.404Z,14.61
2019-05-15T04:31:56.369Z,15.66
2019-05-15T04:34:10.658Z,16.33
2019-05-15T04:36:39.523Z,16.72
2019-05-15T04:39:09.670Z,17.01
2019-05-15T04:41:35.783Z,16.87
2019-05-15T04:44:04.460Z,16.10
2019-05-15T04:46:31.517Z,15.78
2019-05-15T04:48:59.601Z,15.77
2019-05-15T04:51:30.332Z,16.00
2019-05-15T04:53:58.579Z,15.77
2019-05-15T04:56:24.872Z,15.20
2019-05-15T04:58:51.905Z,15.00
2019-05-15T05:01:20.267Z,14.98
2019-05-15T05:03:49.542Z,14.76
2019-05-15T05:06:19.136Z,14.14
2019-05-15T05:08:49.068Z,13.51
2019-05-15T05:11:15.540Z,12.47
2019-05-15T05:13:42.857Z,11.50
2019-05-15T05:16:10.211Z,10.45
2019-05-15T05:18:41.105Z,9.63
2019-05-15T05:21:07.714Z,8.91
2019-05-15T05:23:34.942Z,8.52
2019-05-15T05:26:02.315Z,8.63
2019-05-15T05:28:30.417Z,8.83
2019-05-15T05:30:58.791Z,9.02
2019-05-15T05:33:28.439Z,9.51
2019-05-15T05:35:58.164Z,9.50
2019-05-15T05:38:24.802Z,9.77
2019-05-15T05:40:52.158Z,10.00
2019-05-15T05:43:19.207Z,10.24
2019-05-15T05:45:48.991Z,11.33
2019-05-15T05:48:15.307Z,12.81
2019-05-15T05:50:44.412Z,13.73
2019-05-15T05:53:11.802Z,15.23
2019-05-15T05:55:38.838Z,16.63
2019-05-15T05:58:08.021Z,16.92
2019-05-15T06:00:34.945Z,16.72
2019-05-15T06:03:03.372Z,16.48
2019-05-15T06:05:30.731Z,15.03
2019-05-15T06:07:58.235Z,15.16
2019-05-15T06:10:25.296Z,15.23
2019-05-15T06:12:52.708Z,14.49
2019-05-15T06:15:19.744Z,15.04
2019-05-15T06:17:48.138Z,15.24
2019-05-15T06:20:15.576Z,15.48
2019-05-15T06:22:42.929Z,16.57
2019-05-15T06:25:11.270Z,16.38
2019-05-15T06:27:39.351Z,16.43
2019-05-15T06:30:08.806Z,17.61
2019-05-15T06:32:35.505Z,18.71
2019-05-15T06:35:02.535Z,17.91
2019-05-15T06:37:29.754Z,17.69
2019-05-15T06:39:58.792Z,17.25
2019-05-15T06:42:28.338Z,15.53
2019-05-15T06:44:54.750Z,14.05
2019-05-15T06:47:22.112Z,14.18
2019-05-15T06:49:49.485Z,14.02
2019-05-15T06:52:18.120Z,14.48
2019-05-15T06:54:45.615Z,14.78
2019-05-15T06:57:12.665Z,14.33
2019-05-15T06:59:40.019Z,13.66
2019-05-15T07:02:08.069Z,13.40
2019-05-15T07:04:35.182Z,13.21
2019-05-15T07:07:02.498Z,13.03
2019-05-15T07:09:29.551Z,12.91
2019-05-15T07:11:58.888Z,12.31
2019-05-15T07:14:25.683Z,12.40
2019-05-15T07:16:52.724Z,12.46
2019-05-15T07:19:20.088Z,11.85
2019-05-15T07:21:48.676Z,12.23
2019-05-15T07:24:18.057Z,12.25
2019-05-15T07:26:45.030Z,12.06
2019-05-15T07:29:12.075Z,12.07
2019-05-15T07:31:39.422Z,11.72
2019-05-15T07:34:08.353Z,11.81
2019-05-15T07:36:35.594Z,11.74
2019-05-15T07:39:02.922Z,11.76
2019-05-15T07:41:30.395Z,12.34
2019-05-15T07:43:58.585Z,12.62
2019-05-15T07:46:25.753Z,12.47
2019-05-15T07:48:53.057Z,13.02
2019-05-15T07:51:20.435Z,12.98
2019-05-15T07:53:48.918Z,12.94
2019-05-15T07:56:18.153Z,12.52
2019-05-15T07:58:45.337Z,13.12
2019-05-15T08:01:12.704Z,13.43
2019-05-15T08:03:55.332Z,13.66
2019-05-15T08:06:09.008Z,13.60
2019-05-15T08:08:36.125Z,13.57
2019-05-15T08:11:16.107Z,13.52
2019-05-15T08:13:31.909Z,13.46
2019-05-15T08:15:58.947Z,13.15
2019-05-15T08:18:28.417Z,13.33
2019-05-15T08:20:54.733Z,12.85
2019-05-15T08:23:23.104Z,12.99
2019-05-15T08:25:50.449Z,13.23
2019-05-15T08:28:19.109Z,13.45
2019-05-15T08:30:48.973Z,13.81
2019-05-15T08:33:14.966Z,14.03
2019-05-15T08:35:45.867Z,13.58
2019-05-15T08:38:14.129Z,13.39
2019-05-15T08:40:41.070Z,13.43
2019-05-15T08:43:11.377Z,13.72
2019-05-15T08:45:39.142Z,13.50
2019-05-15T08:48:05.847Z,13.22
2019-05-15T08:50:33.151Z,13.11
2019-05-15T08:53:00.188Z,13.11
2019-05-15T08:55:28.158Z,13.08
2019-05-15T08:58:04.191Z,12.98
2019-05-15T09:00:24.459Z,12.70
2019-05-15T09:02:51.500Z,12.81
2019-05-15T09:05:18.872Z,13.02
2019-05-15T09:07:48.460Z,13.10
2019-05-15T09:10:15.148Z,13.10
2019-05-15T09:12:42.441Z,12.84
2019-05-15T09:15:09.494Z,13.24
2019-05-15T09:17:39.601Z,12.93
2019-05-15T09:20:05.277Z,12.90
2019-05-15T09:22:32.318Z,13.01
2019-05-15T09:24:59.367Z,13.09
2019-05-15T09:27:27.886Z,12.11
2019-05-15T09:29:55.029Z,11.98
2019-05-15T09:32:22.357Z,11.91
2019-05-15T09:34:54.904Z,12.03
2019-05-15T09:37:18.410Z,12.32
2019-05-15T09:39:45.866Z,12.28
2019-05-15T09:42:13.203Z,12.40
2019-05-15T09:44:40.257Z,12.86
2019-05-15T09:47:09.186Z,12.90
2019-05-15T09:49:38.963Z,13.11
2019-05-15T09:52:08.822Z,13.37
2019-05-15T09:54:35.205Z,13.11
2019-05-15T09:57:02.560Z,13.71
2019-05-15T09:59:30.017Z,13.93
2019-05-15T10:01:58.923Z,13.71
2019-05-15T10:04:28.482Z,14.24
2019-05-15T10:06:54.864Z,15.28
2019-05-15T10:09:22.206Z,14.95
2019-05-15T10:11:49.427Z,14.11
2019-05-15T10:14:19.267Z,14.16
2019-05-15T10:16:45.699Z,14.64
2019-05-15T10:19:12.738Z,14.35
2019-05-15T10:21:40.308Z,13.60
2019-05-15T10:24:09.482Z,12.70
2019-05-15T10:26:36.350Z,12.68
2019-05-15T10:29:03.391Z,12.79
2019-05-15T10:31:30.778Z,13.19
2019-05-15T10:33:58.273Z,13.68
2019-05-15T10:36:27.842Z,14.21
2019-05-15T10:38:54.301Z,13.67
2019-05-15T10:41:21.611Z,13.10
2019-05-15T10:43:55.973Z,12.78
2019-05-15T10:46:18.996Z,13.10
2019-05-15T10:48:49.009Z,14.07
2019-05-15T10:51:15.183Z,15.12
2019-05-15T10:53:42.494Z,15.16
2019-05-15T10:56:09.790Z,15.14
2019-05-15T10:58:38.935Z,14.60
2019-05-15T11:01:05.602Z,14.20
2019-05-15T11:03:35.076Z,13.25
2019-05-15T11:06:02.023Z,13.24
2019-05-15T11:08:29.208Z,14.43
2019-05-15T11:10:58.535Z,15.86
2019-05-15T11:13:25.621Z,16.80
2019-05-15T11:15:52.678Z,17.17
2019-05-15T11:18:19.715Z,17.96
2019-05-15T11:20:48.767Z,18.05
2019-05-15T11:23:15.506Z,18.00
2019-05-15T11:25:42.560Z,18.84
2019-05-15T11:28:09.595Z,18.88
2019-05-15T11:30:39.300Z,18.92
2019-05-15T11:33:05.689Z,18.27
2019-05-15T11:35:33.064Z,18.52
2019-05-15T11:38:00.102Z,18.20
2019-05-15T11:40:28.356Z,16.91
2019-05-15T11:42:55.480Z,15.34
2019-05-15T11:45:22.879Z,13.89
2019-05-15T11:47:49.933Z,13.77
2019-05-15T11:50:20.022Z,14.85
2019-05-15T11:52:46.067Z,15.61
2019-05-15T11:55:13.107Z,16.51
2019-05-15T11:57:46.794Z,17.14
2019-05-15T12:00:14.587Z,16.13
2019-05-15T12:02:38.559Z,14.77
2019-05-15T12:05:05.713Z,13.54
2019-05-15T12:07:34.089Z,13.84
2019-05-15T12:10:01.120Z,15.36
2019-05-15T12:12:31.468Z,16.29
2019-05-15T12:14:57.281Z,15.97
2019-05-15T12:17:24.651Z,15.26
2019-05-15T12:19:58.393Z,15.70
2019-05-15T12:22:20.738Z,16.30
2019-05-15T12:24:49.898Z,17.34
2019-05-15T12:27:18.393Z,18.63
2019-05-15T12:29:48.973Z,18.52
2019-05-15T12:32:26.456Z,18.60
2019-05-15T12:34:44.843Z,18.45
2019-05-15T12:37:12.215Z,18.66
2019-05-15T12:39:40.898Z,18.37
2019-05-15T13:01:59.147Z,14.53
2019-05-15T13:04:28.428Z,13.79
2019-05-15T13:07:12.372Z,13.81
2019-05-15T13:09:24.011Z,14.15
2019-05-15T13:11:51.306Z,14.02
2019-05-15T13:14:18.838Z,13.45
2019-05-15T13:16:48.017Z,12.80
2019-05-15T13:19:15.548Z,12.76
2019-05-15T13:21:42.586Z,12.75
2019-05-15T13:24:09.955Z,12.57
2019-05-15T13:26:38.492Z,12.29
2019-05-15T13:29:05.740Z,12.20
2019-05-15T13:31:33.040Z,12.17
2019-05-15T13:34:00.093Z,12.26
2019-05-15T13:36:28.918Z,12.45
2019-05-15T13:38:57.859Z,12.41
2019-05-15T13:41:25.045Z,12.56
2019-05-15T13:43:52.378Z,12.33
2019-05-15T13:46:20.895Z,12.30
2019-05-15T13:48:49.080Z,12.38
2019-05-15T13:51:18.221Z,12.32
2019-05-15T13:53:45.895Z,12.35
2019-05-15T13:56:13.272Z,12.18
2019-05-15T13:58:40.314Z,12.19
2019-05-15T14:01:09.477Z,12.48
2019-05-15T14:03:38.866Z,12.54
2019-05-15T14:06:05.193Z,12.47
2019-05-15T14:08:33.318Z,12.51
2019-05-15T14:11:00.673Z,12.60
2019-05-15T14:13:28.758Z,12.77
2019-05-15T14:15:58.223Z,12.96
2019-05-15T14:18:25.140Z,13.08
2019-05-15T14:20:52.165Z,13.20
2019-05-15T14:23:19.229Z,12.85
2019-05-15T14:25:48.253Z,12.62
2019-05-15T14:28:15.322Z,12.54
2019-05-15T14:30:42.398Z,12.39
2019-05-15T14:33:09.421Z,12.21
2019-05-15T14:35:37.996Z,12.19
2019-05-15T14:38:06.863Z,12.33
2019-05-15T14:40:34.188Z,12.46
2019-05-15T14:43:01.640Z,12.43
2019-05-15T14:45:28.952Z,12.50
2019-05-15T14:47:58.143Z,12.58
2019-05-15T14:50:24.751Z,12.56
2019-05-15T14:52:52.080Z,12.73
2019-05-15T14:55:19.150Z,12.93
2019-05-15T14:57:50.743Z,13.04
2019-05-15T15:00:20.114Z,12.99
2019-05-15T15:02:45.531Z,12.86
2019-05-15T15:05:12.658Z,12.77
2019-05-15T15:07:39.704Z,13.02
2019-05-15T15:10:07.867Z,12.98
2019-05-15T15:12:35.598Z,12.85
2019-05-15T15:15:02.658Z,12.78
2019-05-15T15:17:29.693Z,12.56
2019-05-15T15:20:00.139Z,12.40
2019-05-15T15:22:28.309Z,12.23
2019-05-15T15:24:54.584Z,12.16
2019-05-15T15:27:21.624Z,12.04
2019-05-15T15:29:48.676Z,11.95
2019-05-15T15:32:16.792Z,11.89
2019-05-15T15:34:43.847Z,11.81
2019-05-15T15:37:11.200Z,11.76
2019-05-15T15:39:39.391Z,11.65
2019-05-15T15:42:08.517Z,11.49
2019-05-15T15:44:37.889Z,11.43
2019-05-15T15:47:04.245Z,11.47
2019-05-15T15:49:31.654Z,11.42
2019-05-15T15:51:58.935Z,11.37
2019-05-15T15:54:27.997Z,11.40
2019-05-15T15:56:54.726Z,11.47
2019-05-15T15:59:21.778Z,11.69
2019-05-15T16:01:49.668Z,11.63
2019-05-15T16:04:18.637Z,11.46
2019-05-15T16:06:48.360Z,11.52
2019-05-15T16:09:14.681Z,11.56
2019-05-15T16:11:42.049Z,11.62
2019-05-15T16:14:09.387Z,11.67
2019-05-15T16:16:38.059Z,11.64
2019-05-15T16:19:05.652Z,11.43
2019-05-15T16:21:32.707Z,11.35
2019-05-15T16:24:12.477Z,11.28
2019-05-15T16:26:29.193Z,11.15
2019-05-15T16:28:58.003Z,11.18
2019-05-15T16:31:25.145Z,11.22
2019-05-15T16:33:52.443Z,11.09
2019-05-15T16:36:19.696Z,11.02
2019-05-15T16:38:48.204Z,10.99
2019-05-15T16:41:15.482Z,11.19
2019-05-15T16:43:42.518Z,11.20
2019-05-15T16:46:09.810Z,11.07
2019-05-15T16:48:38.981Z,10.98
2019-05-15T16:51:05.894Z,10.95
2019-05-15T16:53:33.945Z,10.89
2019-05-15T16:56:01.301Z,10.96
2019-05-15T16:58:29.570Z,10.83
2019-05-15T17:00:58.529Z,10.83
2019-05-15T17:03:25.672Z,10.77
2019-05-15T17:05:53.098Z,10.66
2019-05-15T17:08:20.197Z,10.63
2019-05-15T17:10:48.291Z,10.63
2019-05-15T17:13:15.588Z,10.63
2019-05-15T17:15:42.638Z,10.64
2019-05-15T17:18:10.281Z,10.64
2019-05-15T17:20:37.564Z,10.56
2019-05-15T17:23:04.975Z,10.42
2019-05-15T17:25:32.351Z,10.32
2019-05-15T17:27:59.473Z,10.19
2019-05-15T17:30:29.839Z,10.08
2019-05-15T17:32:56.991Z,9.95
2019-05-15T17:35:24.033Z,9.79
2019-05-15T17:37:51.109Z,9.78
2019-05-15T17:40:18.161Z,9.68
2019-05-15T17:42:45.219Z,9.57
2019-05-15T17:45:12.275Z,9.47
2019-05-15T17:47:40.428Z,9.44
2019-05-15T17:50:08.447Z,9.45
2019-05-15T17:52:35.632Z,9.44
2019-05-15T17:55:02.694Z,9.39
2019-05-15T17:57:30.853Z,9.37
2019-05-15T17:59:58.995Z,9.28
2019-05-15T18:02:28.442Z,9.23
2019-05-15T18:04:54.854Z,9.18
2019-05-15T18:07:21.924Z,9.16
2019-05-15T18:09:54.103Z,9.17
2019-05-15T18:12:18.149Z,9.14
2019-05-15T18:14:47.608Z,9.08
2019-05-15T18:17:13.980Z,9.05
2019-05-15T18:19:41.333Z,9.00
2019-05-15T18:22:09.059Z,8.92
2019-05-15T18:24:38.321Z,8.87
2019-05-15T18:27:05.098Z,8.78
2019-05-15T18:29:32.145Z,8.67
2019-05-15T18:31:59.537Z,8.60
2019-05-15T18:34:28.755Z,8.55
2019-05-15T18:36:57.743Z,8.49
2019-05-15T18:39:24.467Z,8.44
2019-05-15T18:41:51.509Z,8.43
2019-05-15T18:44:19.000Z,8.43
2019-05-15T18:46:48.605Z,8.37
2019-05-15T18:49:17.834Z,8.34
2019-05-15T18:51:44.268Z,8.34
2019-05-15T18:54:11.652Z,8.30
2019-05-15T18:56:40.261Z,8.27
2019-05-15T18:59:08.517Z,8.25
2019-05-15T19:01:35.987Z,8.20
2019-05-15T19:04:03.531Z,8.14
2019-05-15T19:06:30.568Z,8.09
2019-05-15T19:08:57.628Z,8.05
2019-05-15T19:11:24.673Z,7.99
2019-05-15T19:13:51.725Z,7.98
2019-05-15T19:16:18.770Z,7.93
2019-05-15T19:18:47.780Z,7.86
2019-05-15T19:21:14.913Z,7.82
2019-05-15T19:23:42.492Z,7.77
2019-05-15T19:26:11.742Z,7.69
2019-05-15T19:28:39.222Z,7.64
2019-05-15T19:31:08.809Z,7.58
2019-05-15T19:33:38.188Z,7.48
2019-05-15T19:36:07.619Z,7.41
2019-05-15T19:38:34.321Z,7.35
2019-05-15T19:41:06.356Z,7.26
2019-05-15T19:43:30.737Z,7.19
2019-05-15T19:45:58.555Z,7.05
2019-05-15T19:48:25.634Z,6.92
2019-05-15T19:50:53.124Z,6.87
2019-05-15T19:53:20.475Z,6.80
2019-05-15T19:55:48.354Z,6.71
2019-05-15T19:58:18.145Z,6.58
2019-05-15T20:00:44.506Z,6.55
2019-05-15T20:03:13.189Z,6.46
2019-05-15T20:05:40.294Z,6.42
2019-05-15T20:08:07.800Z,6.30
2019-05-15T20:10:35.182Z,6.22
2019-05-15T20:13:02.496Z,6.18
2019-05-15T20:15:29.811Z,6.12
2019-05-15T20:17:57.300Z,6.05
2019-05-15T20:20:24.647Z,5.98
2019-05-15T20:22:52.104Z,5.94
2019-05-15T20:25:19.384Z,5.91
2019-05-15T20:27:48.134Z,5.87
2019-05-15T20:30:15.152Z,5.81
2019-05-15T20:32:42.259Z,5.76
2019-05-15T20:35:09.695Z,5.72
2019-05-15T20:37:39.082Z,5.69
2019-05-15T20:40:05.800Z,5.65
2019-05-15T20:42:33.227Z,5.61
2019-05-15T20:45:00.552Z,5.59
2019-05-15T20:47:28.074Z,5.54
2019-05-15T20:49:55.673Z,5.47
2019-05-15T20:52:22.716Z,5.45
2019-05-15T20:54:49.754Z,5.42
2019-05-15T20:57:17.140Z,5.37
2019-05-15T20:59:44.525Z,5.36
2019-05-15T21:02:11.959Z,5.36
2019-05-15T21:04:39.008Z,5.35
2019-05-15T21:07:07.892Z,5.32
2019-05-15T21:09:35.453Z,5.29
2019-05-15T21:12:02.809Z,5.26
2019-05-15T21:14:29.864Z,5.22
2019-05-15T21:16:59.011Z,5.22
2019-05-15T21:19:27.638Z,5.23
2019-05-15T21:21:54.694Z,5.23
2019-05-15T21:24:22.045Z,5.23
2019-05-15T21:26:49.075Z,5.21
2019-05-15T21:29:18.532Z,5.21
2019-05-15T21:31:45.688Z,5.26
2019-05-15T21:34:12.732Z,5.27
2019-05-15T21:36:39.767Z,5.27
2019-05-15T21:39:07.181Z,5.27
2019-05-15T21:41:34.736Z,5.23
2019-05-15T21:44:01.790Z,5.24
2019-05-15T21:46:30.165Z,5.25
2019-05-15T21:48:58.158Z,5.27
2019-05-15T21:51:28.127Z,5.28
2019-05-15T21:53:55.306Z,5.26
2019-05-15T21:56:22.340Z,5.24
2019-05-15T21:58:49.369Z,5.22
2019-05-15T22:01:19.672Z,5.19
2019-05-15T22:03:48.088Z,5.19
2019-05-15T22:06:14.870Z,5.16
2019-05-15T22:08:42.216Z,5.17
2019-05-15T22:11:09.567Z,5.19
2019-05-15T22:13:39.330Z,5.21
2019-05-15T22:16:08.111Z,5.22
2019-05-15T22:18:35.918Z,5.23
2019-05-15T22:21:05.016Z,5.23
2019-05-15T22:23:32.044Z,5.25
2019-05-15T22:25:59.098Z,5.24
2019-05-15T22:28:28.206Z,5.21
2019-05-15T22:30:55.648Z,5.16
2019-05-15T22:33:23.020Z,5.11
2019-05-15T22:35:50.325Z,5.10
2019-05-15T22:38:18.118Z,5.12
2019-05-15T22:40:45.801Z,5.14
2019-05-15T22:43:13.074Z,5.16
2019-05-15T22:45:40.412Z,5.18
2019-05-15T22:48:07.437Z,5.17
2019-05-15T22:50:34.816Z,5.16
2019-05-15T22:53:01.846Z,5.14
2019-05-15T22:55:29.244Z,5.11
2019-05-15T22:57:58.151Z,5.08
2019-05-15T23:00:25.365Z,5.04
2019-05-15T23:02:52.641Z,5.04
2019-05-15T23:05:27.726Z,5.05
2019-05-15T23:07:49.782Z,5.02
2019-05-15T23:10:17.158Z,5.00
2019-05-15T23:12:44.191Z,4.93
2019-05-15T23:15:11.217Z,4.87
2019-05-15T23:17:38.515Z,4.82
2019-05-15T23:20:05.971Z,4.78
2019-05-15T23:22:33.587Z,4.78
2019-05-15T23:25:00.976Z,4.77
2019-05-15T23:27:28.732Z,4.77
2019-05-15T23:29:58.183Z,4.77
2019-05-15T23:32:25.343Z,4.77
2019-05-15T23:34:52.385Z,4.78
2019-05-15T23:37:19.422Z,4.79
2019-05-15T23:39:48.702Z,4.79
2019-05-15T23:42:18.292Z,4.78
2019-05-15T23:44:45.123Z,4.77
2019-05-15T23:47:12.485Z,4.80
2019-05-15T23:49:39.833Z,4.84
2019-05-15T23:52:08.869Z,4.85
2019-05-15T23:54:35.879Z,4.86
2019-05-15T23:57:02.924Z,4.86
2019-05-15T23:59:29.962Z,4.84
